FMNM/MJN METAR and TAF weather

Enter ICAO airport designator
Station Type Date Time Source
FMNM METAR 2019/12/14 06:00 UTC NOAA

FMNM 140600Z VRB04KT 9999 FEW020 31/24 Q1013 NOSIG


Station Type Date Time Source
FMNM Decoded METAR 2019/12/14 06:00 UTC NOAA

Majunga, Madagascar (FMNM) 15-40S 046-21E 18M
Dec 14, 2019 - 01:00 AM EST / 2019.12.14 0600 UTC
Wind: Variable at 5 MPH (4 KT):0
Visibility: greater than 7 mile(s):0
Sky conditions: mostly clear
Temperature: 87 F (31 C)
Heat index: 95.7 F (35.4 C):1
Dew Point: 75 F (24 C)
Relative Humidity: 66%
Pressure (altimeter): 29.91 in. Hg (1013 hPa)
ob: FMNM 140600Z VRB04KT 9999 FEW020 31/24 Q1013 NOSIG
cycle: 6

Station Type Date Time Source
FMNM TAF 2019/12/14 06:04 UTC NOAA

TAF FMNM 140500Z 1406/1506 VRB02KT 9999 SCT020CB SCT040
TEMPO 1406/1503 4000 TSRA
BECMG 1408/1410 32012KT
BECMG 1420/1422 12004KT

Example: see airport list